createdAt,value
2023-01-19T00:00:47.569Z,67.23
2023-01-19T00:03:18.449Z,67.47
2023-01-19T00:05:46.219Z,67.29
2023-01-19T00:08:16.729Z,66.67
2023-01-19T00:10:49.197Z,66.31
2023-01-19T00:13:16.649Z,66.46
2023-01-19T00:15:44.575Z,66.52
2023-01-19T00:18:12.024Z,66.83
2023-01-19T00:20:40.607Z,66.70
2023-01-19T00:23:08.826Z,66.25
2023-01-19T00:25:42.212Z,66.04
2023-01-19T00:28:11.414Z,66.04
2023-01-19T00:30:39.648Z,66.45
2023-01-19T00:33:07.074Z,66.84
2023-01-19T00:35:35.763Z,66.65
2023-01-19T00:38:03.683Z,66.87
2023-01-19T00:40:31.099Z,66.56
2023-01-19T00:43:00.169Z,66.94
2023-01-19T00:45:27.770Z,66.28
2023-01-19T00:47:57.146Z,65.98
2023-01-19T00:50:29.381Z,66.03
2023-01-19T00:52:57.733Z,65.75
2023-01-19T00:55:25.625Z,66.48
2023-01-19T00:57:52.964Z,66.16
2023-01-19T01:00:21.415Z,65.67
2023-01-19T01:02:51.479Z,66.41
2023-01-19T01:05:19.300Z,65.90
2023-01-19T01:07:48.286Z,65.63
2023-01-19T01:10:23.332Z,66.67
2023-01-19T01:12:57.666Z,66.09
2023-01-19T01:15:28.091Z,65.84
2023-01-19T01:17:55.911Z,66.22
2023-01-19T01:20:27.659Z,65.87
2023-01-19T01:22:57.228Z,65.55
2023-01-19T01:25:26.646Z,65.57
2023-01-19T01:27:54.783Z,65.78
2023-01-19T01:30:22.870Z,65.90
2023-01-19T01:32:50.286Z,65.74
2023-01-19T01:35:17.785Z,66.14
2023-01-19T01:37:45.522Z,66.36
2023-01-19T01:40:14.936Z,66.65
2023-01-19T01:42:42.891Z,65.70
2023-01-19T01:45:33.389Z,66.14
2023-01-19T01:48:28.505Z,66.26
2023-01-19T01:51:25.290Z,66.36
2023-01-19T01:54:02.684Z,66.22
2023-01-19T01:56:43.768Z,65.85
2023-01-19T01:59:34.895Z,65.66
2023-01-19T02:02:24.867Z,65.56
2023-01-19T02:04:58.421Z,65.43
2023-01-19T02:08:31.647Z,66.06
2023-01-19T02:11:18.277Z,65.31
2023-01-19T02:13:47.011Z,65.55
2023-01-19T02:16:15.725Z,65.61
2023-01-19T02:18:43.297Z,65.20
2023-01-19T02:21:23.828Z,66.22
2023-01-19T02:23:53.813Z,66.41
2023-01-19T02:26:27.260Z,65.89
2023-01-19T02:28:57.810Z,66.64
2023-01-19T02:31:26.471Z,67.23
2023-01-19T02:33:54.831Z,67.45
2023-01-19T02:36:29.296Z,66.74
2023-01-19T02:38:57.495Z,66.65
2023-01-19T02:41:28.918Z,66.25
2023-01-19T02:43:57.458Z,66.28
2023-01-19T02:46:25.684Z,66.14
2023-01-19T02:48:53.016Z,65.62
2023-01-19T02:51:21.447Z,65.68
2023-01-19T02:54:23.866Z,65.97
2023-01-19T02:57:09.848Z,66.05
2023-01-19T03:00:02.369Z,66.08
2023-01-19T03:02:46.383Z,66.82
2023-01-19T03:05:58.582Z,66.42
2023-01-19T03:08:48.539Z,66.21
2023-01-19T03:11:16.301Z,65.88
2023-01-19T03:14:04.132Z,66.45
2023-01-19T03:16:44.009Z,66.00
2023-01-19T03:19:19.712Z,65.62
2023-01-19T03:22:05.015Z,66.18
2023-01-19T03:24:37.068Z,66.62
2023-01-19T03:27:26.540Z,67.37
2023-01-19T03:30:13.153Z,69.02
2023-01-19T03:33:08.024Z,69.40
2023-01-19T03:35:37.537Z,68.98
2023-01-19T03:38:15.019Z,69.38
2023-01-19T03:40:42.760Z,68.87
2023-01-19T03:43:10.604Z,68.45
2023-01-19T03:45:38.720Z,69.80
2023-01-19T03:48:06.414Z,69.02
2023-01-19T03:50:34.022Z,68.90
2023-01-19T03:53:05.828Z,68.60
2023-01-19T03:55:34.440Z,68.10
2023-01-19T03:58:02.415Z,67.75
2023-01-19T04:00:29.911Z,68.74
2023-01-19T04:02:57.728Z,67.71
2023-01-19T04:05:25.339Z,68.48
2023-01-19T04:07:52.787Z,68.43
2023-01-19T04:10:21.134Z,68.83
2023-01-19T04:12:48.734Z,69.28
2023-01-19T04:15:16.329Z,69.67
2023-01-19T04:17:44.211Z,69.33
2023-01-19T04:20:11.746Z,68.82
2023-01-19T04:22:39.639Z,69.28
2023-01-19T04:25:08.296Z,70.71
2023-01-19T04:27:36.398Z,69.74
2023-01-19T04:30:04.527Z,69.32
2023-01-19T04:32:32.563Z,70.14
2023-01-19T04:35:00.207Z,69.63
2023-01-19T04:37:27.713Z,68.86
2023-01-19T04:39:55.379Z,68.49
2023-01-19T04:42:23.011Z,67.80
2023-01-19T04:44:50.416Z,67.51
2023-01-19T04:47:18.033Z,67.15
2023-01-19T04:49:45.669Z,66.91
2023-01-19T04:52:13.283Z,66.22
2023-01-19T04:54:40.980Z,66.16
2023-01-19T04:57:08.386Z,65.73
2023-01-19T04:59:35.788Z,66.25
2023-01-19T05:02:03.582Z,66.05
2023-01-19T05:04:30.965Z,66.49
2023-01-19T05:06:58.453Z,65.75
2023-01-19T05:09:27.164Z,65.52
2023-01-19T05:11:54.557Z,65.56
2023-01-19T05:14:22.094Z,65.14
2023-01-19T05:16:49.746Z,65.28
2023-01-19T05:19:17.194Z,64.77
2023-01-19T05:21:44.573Z,64.93
2023-01-19T05:24:12.365Z,65.07
2023-01-19T05:26:39.784Z,65.13
2023-01-19T05:29:08.107Z,65.43
2023-01-19T05:31:37.131Z,65.15
2023-01-19T05:34:04.967Z,65.25
2023-01-19T05:36:32.705Z,64.73
2023-01-19T05:39:00.410Z,64.92
2023-01-19T05:41:27.742Z,64.61
2023-01-19T05:43:55.127Z,65.13
2023-01-19T05:46:22.871Z,64.57
2023-01-19T05:48:50.613Z,64.73
2023-01-19T05:51:17.987Z,64.67
2023-01-19T05:53:45.609Z,64.95
2023-01-19T05:56:13.066Z,64.31
2023-01-19T05:58:40.543Z,64.08
2023-01-19T06:01:10.259Z,64.27
2023-01-19T06:03:39.516Z,65.90
2023-01-19T06:06:07.103Z,65.96
2023-01-19T06:08:34.483Z,66.19
2023-01-19T06:11:02.193Z,65.87
2023-01-19T06:13:29.776Z,66.19
2023-01-19T06:16:01.388Z,66.25
2023-01-19T06:18:29.434Z,66.58
2023-01-19T06:20:58.842Z,66.31
2023-01-19T06:23:29.974Z,66.30
2023-01-19T06:25:57.764Z,67.75
2023-01-19T06:28:25.510Z,68.66
2023-01-19T06:30:54.404Z,69.19
2023-01-19T06:33:22.949Z,69.09
2023-01-19T06:35:51.059Z,69.09
2023-01-19T06:38:19.288Z,69.57
2023-01-19T06:40:53.839Z,69.20
2023-01-19T06:43:21.692Z,69.93
2023-01-19T06:45:50.097Z,69.42
2023-01-19T06:48:18.054Z,69.31
2023-01-19T06:50:46.672Z,67.79
2023-01-19T06:53:16.514Z,68.01
2023-01-19T06:55:44.223Z,68.41
2023-01-19T06:58:11.982Z,67.95
2023-01-19T07:00:39.645Z,67.84
2023-01-19T07:03:07.850Z,67.80
2023-01-19T07:05:36.241Z,67.45
2023-01-19T07:08:04.212Z,67.02
2023-01-19T07:11:25.420Z,67.05
2023-01-19T07:13:19.593Z,66.63
2023-01-19T07:15:46.975Z,66.80
2023-01-19T07:18:14.387Z,67.92
2023-01-19T07:20:42.035Z,67.35
2023-01-19T07:23:09.375Z,67.27
2023-01-19T07:25:36.816Z,67.26
2023-01-19T07:28:04.543Z,66.60
2023-01-19T07:30:31.986Z,70.00
2023-01-19T07:32:59.780Z,67.53
2023-01-19T07:35:29.609Z,79.89
2023-01-19T07:37:56.927Z,74.34
2023-01-19T07:40:24.308Z,72.05
2023-01-19T07:42:52.105Z,70.11
2023-01-19T07:45:20.840Z,68.00
2023-01-19T07:47:49.712Z,64.13
2023-01-19T07:50:21.153Z,63.50
2023-01-19T07:52:53.322Z,63.10
2023-01-19T07:55:21.495Z,63.30
2023-01-19T07:57:51.058Z,62.30
2023-01-19T08:00:21.849Z,63.24
2023-01-19T08:02:52.490Z,64.18
2023-01-19T08:05:20.397Z,65.12
2023-01-19T08:07:48.318Z,64.38
2023-01-19T08:10:18.668Z,64.23
2023-01-19T08:12:45.982Z,64.05
2023-01-19T08:15:13.542Z,64.30
2023-01-19T08:17:41.138Z,63.97
2023-01-19T08:20:09.840Z,63.68
2023-01-19T08:22:37.781Z,64.16
2023-01-19T08:25:05.786Z,64.50
2023-01-19T08:27:33.095Z,63.85
2023-01-19T08:30:00.781Z,64.41
2023-01-19T08:32:28.425Z,65.06
2023-01-19T08:34:55.971Z,65.99
2023-01-19T08:37:24.793Z,66.70
2023-01-19T08:39:53.940Z,66.05
2023-01-19T08:42:21.558Z,66.23
2023-01-19T08:44:57.518Z,67.24
2023-01-19T08:47:25.713Z,67.09
2023-01-19T08:49:53.143Z,67.12
2023-01-19T08:52:20.473Z,68.25
2023-01-19T08:54:48.073Z,68.88
2023-01-19T08:57:16.191Z,69.43
2023-01-19T08:59:43.742Z,69.62
2023-01-19T09:02:12.137Z,69.87
2023-01-19T09:04:39.615Z,69.97
2023-01-19T09:07:07.005Z,69.83
2023-01-19T09:09:37.796Z,69.88
2023-01-19T09:12:05.389Z,69.55
2023-01-19T09:14:32.749Z,70.17
2023-01-19T09:17:00.441Z,69.54
2023-01-19T09:19:27.864Z,68.77
2023-01-19T09:21:55.284Z,68.04
2023-01-19T09:24:22.939Z,68.10
2023-01-19T09:26:50.601Z,67.52
2023-01-19T09:29:17.975Z,69.62
2023-01-19T09:31:45.709Z,68.60
2023-01-19T09:34:13.168Z,68.48
2023-01-19T09:36:40.599Z,68.54
2023-01-19T09:39:09.293Z,67.58
2023-01-19T09:41:38.646Z,69.46
2023-01-19T09:44:06.190Z,69.22
2023-01-19T09:46:38.978Z,69.30
2023-01-19T09:49:44.073Z,69.04
2023-01-19T09:52:15.032Z,69.11
2023-01-19T09:54:56.616Z,69.90
2023-01-19T09:57:25.223Z,70.43
2023-01-19T09:59:57.844Z,69.83
2023-01-19T10:02:36.490Z,69.76
2023-01-19T10:05:05.408Z,70.23
2023-01-19T10:07:32.670Z,70.82
2023-01-19T10:10:21.129Z,70.37
2023-01-19T10:13:25.098Z,70.74
2023-01-19T10:16:02.439Z,71.03
2023-01-19T10:18:47.904Z,70.88
2023-01-19T10:21:21.701Z,71.35
2023-01-19T10:23:55.281Z,70.99
2023-01-19T10:26:41.185Z,70.89
2023-01-19T10:29:19.731Z,71.16
2023-01-19T10:31:47.661Z,70.61
2023-01-19T10:34:20.947Z,71.96
2023-01-19T10:36:59.067Z,70.94
2023-01-19T10:39:26.824Z,71.36
2023-01-19T10:41:54.240Z,71.40
2023-01-19T10:44:26.675Z,71.42
2023-01-19T10:46:56.911Z,70.87
2023-01-19T10:49:39.145Z,72.34
2023-01-19T10:52:19.055Z,70.88
2023-01-19T10:54:48.468Z,70.20
2023-01-19T10:57:36.568Z,69.72
2023-01-19T11:00:06.426Z,70.20
2023-01-19T11:02:34.504Z,70.43
2023-01-19T11:05:22.904Z,70.46
2023-01-19T11:07:50.607Z,70.37
2023-01-19T11:10:20.683Z,72.06
2023-01-19T11:13:15.682Z,70.93
2023-01-19T11:15:45.831Z,71.56
2023-01-19T11:18:39.652Z,70.72
2023-01-19T11:21:10.034Z,70.79
2023-01-19T11:23:43.055Z,71.56
2023-01-19T11:26:25.071Z,72.03
2023-01-19T11:28:56.003Z,71.39
2023-01-19T11:31:29.833Z,72.64
2023-01-19T11:34:25.945Z,71.92
2023-01-19T11:37:31.049Z,72.45
2023-01-19T11:39:59.695Z,72.34
2023-01-19T11:42:30.962Z,71.97
2023-01-19T11:45:11.024Z,71.59
2023-01-19T11:47:44.197Z,71.85
2023-01-19T11:50:35.078Z,71.37
2023-01-19T11:53:24.797Z,73.01
2023-01-19T11:55:56.883Z,73.74
2023-01-19T11:58:25.997Z,72.93
2023-01-19T12:01:20.867Z,72.40
2023-01-19T12:03:54.870Z,71.05
2023-01-19T12:06:26.314Z,71.32
2023-01-19T12:09:00.199Z,71.86
2023-01-19T12:11:32.496Z,71.91
2023-01-19T12:14:00.123Z,71.21
2023-01-19T12:16:30.134Z,70.47
2023-01-19T12:19:01.648Z,70.26
2023-01-19T12:21:29.589Z,70.15
2023-01-19T12:24:16.395Z,70.01
2023-01-19T12:26:51.924Z,70.66
2023-01-19T12:29:22.359Z,70.58
2023-01-19T12:32:14.889Z,71.40
2023-01-19T12:34:49.549Z,72.97
2023-01-19T12:37:37.227Z,73.48
2023-01-19T12:40:20.284Z,71.42
2023-01-19T12:42:55.223Z,70.27
2023-01-19T12:45:25.685Z,71.26
2023-01-19T12:47:54.543Z,69.28
2023-01-19T12:50:25.742Z,69.83
2023-01-19T12:52:57.441Z,69.22
2023-01-19T12:55:27.849Z,69.14
2023-01-19T12:58:00.684Z,69.14
2023-01-19T13:00:35.532Z,70.40
2023-01-19T13:03:18.425Z,70.28
2023-01-19T13:05:48.608Z,70.29
2023-01-19T13:08:18.155Z,70.87
2023-01-19T13:11:07.796Z,70.84
2023-01-19T13:13:40.147Z,71.57
2023-01-19T13:16:19.909Z,71.73
2023-01-19T13:19:06.225Z,72.20
2023-01-19T13:21:44.695Z,73.16
2023-01-19T13:24:17.696Z,73.24
2023-01-19T13:26:54.899Z,72.82
2023-01-19T13:29:33.112Z,72.43
2023-01-19T13:32:24.124Z,72.06
2023-01-19T13:34:57.151Z,72.97
2023-01-19T13:37:34.517Z,73.31
2023-01-19T13:40:02.663Z,73.18
2023-01-19T13:42:40.857Z,72.47
2023-01-19T13:45:33.525Z,72.18
2023-01-19T13:48:06.441Z,71.78
2023-01-19T13:50:38.527Z,73.69
2023-01-19T13:53:19.307Z,73.77
2023-01-19T13:55:48.167Z,73.49
2023-01-19T13:58:22.177Z,73.30
2023-01-19T14:00:50.091Z,72.92
2023-01-19T14:03:23.610Z,72.22
2023-01-19T14:05:52.480Z,72.27
2023-01-19T14:08:20.803Z,72.26
2023-01-19T14:10:54.058Z,72.68
2023-01-19T14:13:27.119Z,72.66
2023-01-19T14:15:57.873Z,73.43
2023-01-19T14:18:30.934Z,73.58
2023-01-19T14:21:11.257Z,72.53
2023-01-19T14:23:47.131Z,73.14
2023-01-19T14:26:43.068Z,72.48
2023-01-19T14:29:38.116Z,71.34
2023-01-19T14:32:20.101Z,73.82
2023-01-19T14:35:03.993Z,72.86
2023-01-19T14:37:34.037Z,72.77
2023-01-19T14:40:04.854Z,72.97
2023-01-19T14:42:35.692Z,73.70
2023-01-19T14:45:07.175Z,73.38
2023-01-19T14:47:40.334Z,73.58
2023-01-19T14:50:21.605Z,74.95
2023-01-19T14:52:56.833Z,73.95
2023-01-19T14:55:32.461Z,72.83
2023-01-19T14:57:59.862Z,72.69
2023-01-19T15:00:27.615Z,72.94
2023-01-19T15:02:54.956Z,71.54
2023-01-19T15:05:23.117Z,71.34
2023-01-19T15:07:52.189Z,72.62
2023-01-19T15:10:22.127Z,72.37
2023-01-19T15:12:53.879Z,72.73
2023-01-19T15:15:29.714Z,72.34
2023-01-19T15:17:58.051Z,72.08
2023-01-19T15:20:25.823Z,71.90
2023-01-19T15:22:53.199Z,73.51
2023-01-19T15:25:26.111Z,73.36
2023-01-19T15:27:57.912Z,72.70
2023-01-19T15:30:31.232Z,73.45
2023-01-19T15:32:59.531Z,74.76
2023-01-19T15:35:26.920Z,73.91
2023-01-19T15:37:54.427Z,73.65
2023-01-19T15:40:23.214Z,73.73
2023-01-19T15:42:50.843Z,73.69
2023-01-19T15:45:39.579Z,72.35
2023-01-19T15:48:09.454Z,72.37
2023-01-19T15:50:39.267Z,72.23
2023-01-19T15:53:07.596Z,72.00
2023-01-19T15:55:34.962Z,71.55
2023-01-19T15:58:02.440Z,72.05
2023-01-19T16:00:31.994Z,71.01
2023-01-19T16:03:01.462Z,70.97
2023-01-19T16:05:41.803Z,70.44
2023-01-19T16:08:13.438Z,70.65
2023-01-19T16:10:41.774Z,70.76
2023-01-19T16:13:11.333Z,70.72
2023-01-19T16:15:39.666Z,70.36
2023-01-19T16:18:07.106Z,71.15
2023-01-19T16:20:34.489Z,71.34
2023-01-19T16:23:14.579Z,71.42
2023-01-19T16:25:43.088Z,70.92
2023-01-19T16:28:10.716Z,70.97
2023-01-19T16:30:38.178Z,71.66
2023-01-19T16:33:05.571Z,72.14
2023-01-19T16:35:33.177Z,70.93
2023-01-19T16:38:00.561Z,70.50
2023-01-19T16:40:27.929Z,70.22
2023-01-19T16:42:55.609Z,72.42
2023-01-19T16:45:22.999Z,72.42
2023-01-19T16:47:52.143Z,71.54
2023-01-19T16:50:19.910Z,70.84
2023-01-19T16:52:47.360Z,71.20
2023-01-19T16:55:14.714Z,70.53
2023-01-19T16:57:42.413Z,70.71
2023-01-19T17:00:10.960Z,70.97
2023-01-19T17:02:38.498Z,70.93
2023-01-19T17:05:06.714Z,70.53
2023-01-19T17:07:34.068Z,70.73
2023-01-19T17:10:01.526Z,69.56
2023-01-19T17:12:31.986Z,71.18
2023-01-19T17:14:59.595Z,70.05
2023-01-19T17:17:26.939Z,70.32
2023-01-19T17:19:54.663Z,69.79
2023-01-19T17:22:22.042Z,70.05
2023-01-19T17:24:49.816Z,70.10
2023-01-19T17:27:17.501Z,70.31
2023-01-19T17:29:44.928Z,70.79
2023-01-19T17:32:12.408Z,71.17
2023-01-19T17:34:40.610Z,71.67
2023-01-19T17:37:08.011Z,70.61
2023-01-19T17:39:35.406Z,70.53
2023-01-19T17:42:03.491Z,70.58
2023-01-19T17:44:30.946Z,70.46
2023-01-19T17:46:59.972Z,70.66
2023-01-19T17:49:27.913Z,71.55
2023-01-19T17:51:55.779Z,71.89
2023-01-19T17:54:23.250Z,70.81
2023-01-19T17:56:50.938Z,71.39
2023-01-19T17:59:18.386Z,70.83
2023-01-19T18:01:46.526Z,70.78
2023-01-19T18:04:14.378Z,69.88
2023-01-19T18:06:41.769Z,70.92
2023-01-19T18:09:09.165Z,70.33
2023-01-19T18:11:36.838Z,70.79
2023-01-19T18:14:05.421Z,70.30
2023-01-19T18:16:33.247Z,70.00
2023-01-19T18:19:01.110Z,71.58
2023-01-19T18:21:30.425Z,70.44
2023-01-19T18:24:02.877Z,70.49
2023-01-19T18:26:32.131Z,69.74
2023-01-19T18:29:00.192Z,68.04
2023-01-19T18:31:28.108Z,68.94
2023-01-19T18:33:55.909Z,68.77
2023-01-19T18:36:23.497Z,68.82
2023-01-19T18:38:51.201Z,68.39
2023-01-19T18:41:20.840Z,68.36
2023-01-19T18:43:48.795Z,68.79
2023-01-19T18:46:16.631Z,69.54
2023-01-19T18:48:44.435Z,69.61
2023-01-19T18:51:13.967Z,69.21
2023-01-19T18:53:41.427Z,69.64
2023-01-19T18:56:12.371Z,69.37
2023-01-19T18:58:39.851Z,69.27
2023-01-19T19:01:17.480Z,68.81
2023-01-19T19:03:45.319Z,69.86
2023-01-19T19:06:12.855Z,69.91
2023-01-19T19:08:40.477Z,69.99
2023-01-19T19:11:08.587Z,69.78
2023-01-19T19:13:36.563Z,70.53
2023-01-19T19:16:05.876Z,71.32
2023-01-19T19:18:37.885Z,70.44
2023-01-19T19:21:10.493Z,69.25
2023-01-19T19:23:38.528Z,69.65
2023-01-19T19:26:08.796Z,69.93
2023-01-19T19:28:37.424Z,70.16
2023-01-19T19:31:13.097Z,70.32
2023-01-19T19:33:41.024Z,70.37
2023-01-19T19:36:10.190Z,70.11
2023-01-19T19:38:37.895Z,70.00
2023-01-19T19:41:09.977Z,69.03
2023-01-19T19:43:38.424Z,69.16
2023-01-19T19:46:07.997Z,69.49
2023-01-19T19:48:38.156Z,69.22
2023-01-19T19:51:19.496Z,69.28
2023-01-19T19:53:49.042Z,69.14
2023-01-19T19:56:21.199Z,68.84
2023-01-19T19:58:49.371Z,69.16
2023-01-19T20:01:21.538Z,69.74
2023-01-19T20:03:49.277Z,69.84
2023-01-19T20:06:20.744Z,68.86
2023-01-19T20:08:49.142Z,70.60
2023-01-19T20:11:19.394Z,70.40
2023-01-19T20:13:47.728Z,70.08
2023-01-19T20:16:17.791Z,69.98
2023-01-19T20:18:48.590Z,70.03
2023-01-19T20:21:19.233Z,69.88
2023-01-19T20:23:48.939Z,69.64
2023-01-19T20:26:19.961Z,68.64
2023-01-19T20:28:48.063Z,68.21
2023-01-19T20:31:19.054Z,68.86
2023-01-19T20:33:47.708Z,68.77
2023-01-19T20:36:15.691Z,68.27
2023-01-19T20:38:43.338Z,67.75
2023-01-19T20:41:12.219Z,69.32
2023-01-19T20:43:39.896Z,70.50
2023-01-19T20:46:07.536Z,69.78
2023-01-19T20:48:35.373Z,69.38
2023-01-19T20:51:11.469Z,69.15
2023-01-19T20:53:40.627Z,68.58
2023-01-19T20:56:13.105Z,69.69
2023-01-19T20:58:40.960Z,68.34
2023-01-19T21:01:17.477Z,68.49
2023-01-19T21:03:45.101Z,68.67
2023-01-19T21:06:12.895Z,69.50
2023-01-19T21:08:40.454Z,69.74
2023-01-19T21:11:08.591Z,69.71
2023-01-19T21:13:36.771Z,69.02
2023-01-19T21:16:04.758Z,69.72
2023-01-19T21:18:32.429Z,69.46
2023-01-19T21:21:00.140Z,69.71
2023-01-19T21:23:28.071Z,69.32
2023-01-19T21:25:58.289Z,69.60
2023-01-19T21:28:27.052Z,68.86
2023-01-19T21:30:55.385Z,68.90
2023-01-19T21:33:23.210Z,68.52
2023-01-19T21:35:56.188Z,68.10
2023-01-19T21:38:26.713Z,68.24
2023-01-19T21:40:55.401Z,68.04
2023-01-19T21:43:23.486Z,66.96
2023-01-19T21:45:50.956Z,66.86
2023-01-19T21:48:19.696Z,67.92
2023-01-19T21:50:56.569Z,67.07
2023-01-19T21:53:24.282Z,66.69
2023-01-19T21:55:51.709Z,66.55
2023-01-19T21:58:19.049Z,66.09
2023-01-19T22:00:46.799Z,64.99
2023-01-19T22:03:14.567Z,64.58
2023-01-19T22:05:42.077Z,64.26
2023-01-19T22:08:09.600Z,64.07
2023-01-19T22:10:37.524Z,64.17
2023-01-19T22:13:06.600Z,64.00
2023-01-19T22:15:34.099Z,63.82
2023-01-19T22:18:01.763Z,64.62
2023-01-19T22:20:29.159Z,65.16
2023-01-19T22:22:57.062Z,65.59
2023-01-19T22:25:27.771Z,65.25
2023-01-19T22:27:55.819Z,65.18
2023-01-19T22:30:23.365Z,64.43
2023-01-19T22:32:53.000Z,64.64
2023-01-19T22:35:21.250Z,64.40
2023-01-19T22:37:48.624Z,63.57
2023-01-19T22:40:16.757Z,64.38
2023-01-19T22:42:47.996Z,64.48
2023-01-19T22:45:16.019Z,63.94
2023-01-19T22:47:43.451Z,64.40
2023-01-19T22:50:10.868Z,64.30
2023-01-19T22:52:38.471Z,65.56
2023-01-19T22:55:06.174Z,67.37
2023-01-19T22:57:36.431Z,67.13
2023-01-19T23:00:07.050Z,66.44
2023-01-19T23:02:34.544Z,65.38
2023-01-19T23:05:01.897Z,65.08
2023-01-19T23:07:29.642Z,64.26
2023-01-19T23:09:56.996Z,65.03
2023-01-19T23:12:24.420Z,66.25
2023-01-19T23:14:52.100Z,66.39
2023-01-19T23:17:19.484Z,66.05
2023-01-19T23:19:47.000Z,66.70
2023-01-19T23:22:14.616Z,66.28
2023-01-19T23:24:41.963Z,65.57
2023-01-19T23:27:09.609Z,64.91
2023-01-19T23:29:37.400Z,65.78
2023-01-19T23:32:04.929Z,65.59
2023-01-19T23:34:32.250Z,66.24
2023-01-19T23:36:59.860Z,65.84
2023-01-19T23:39:27.192Z,65.40
2023-01-19T23:41:54.572Z,64.91
2023-01-19T23:44:22.195Z,64.19
2023-01-19T23:46:49.560Z,64.76
2023-01-19T23:49:18.063Z,64.93
2023-01-19T23:51:45.714Z,66.20
2023-01-19T23:54:13.038Z,66.17
2023-01-19T23:56:42.592Z,65.62
2023-01-19T23:59:12.747Z,65.04
